createdAt,value
2023-01-31T00:00:21.695Z,10.50
2023-01-31T00:05:23.373Z,7.03
2023-01-31T00:10:25.092Z,11.17
2023-01-31T00:15:26.934Z,8.00
2023-01-31T00:20:33.791Z,9.63
2023-01-31T00:25:35.840Z,10.53
2023-01-31T00:30:38.141Z,9.07
2023-01-31T00:35:40.959Z,5.73
2023-01-31T00:40:53.541Z,5.07
2023-01-31T00:45:55.223Z,9.00
2023-01-31T00:50:58.190Z,8.90
2023-01-31T00:56:08.023Z,9.00
2023-01-31T01:01:18.810Z,10.30
2023-01-31T01:06:21.794Z,11.00
2023-01-31T01:11:27.137Z,6.27
2023-01-31T01:16:37.731Z,5.40
2023-01-31T01:21:40.769Z,11.00
2023-01-31T01:26:43.410Z,6.97
2023-01-31T01:38:21.323Z,8.50
2023-01-31T01:43:48.380Z,7.67
2023-01-31T01:48:53.124Z,4.57
2023-01-31T01:53:56.791Z,9.03
2023-01-31T01:59:02.973Z,5.93
2023-01-31T02:04:12.238Z,7.50
2023-01-31T02:09:25.694Z,5.33
2023-01-31T02:14:28.436Z,6.10
2023-01-31T02:19:45.819Z,7.63
2023-01-31T02:25:26.675Z,8.90
2023-01-31T02:31:14.622Z,7.23
2023-01-31T02:36:35.997Z,5.80
2023-01-31T02:41:43.677Z,7.90
2023-01-31T02:46:51.468Z,7.50
2023-01-31T02:52:13.510Z,5.80
2023-01-31T02:57:16.305Z,4.93
2023-01-31T03:02:18.444Z,5.63
2023-01-31T03:07:33.535Z,6.23
2023-01-31T03:12:50.570Z,7.37
2023-01-31T03:18:01.943Z,7.67
2023-01-31T03:23:08.685Z,6.50
2023-01-31T03:28:15.311Z,7.20
2023-01-31T03:33:38.619Z,4.33
2023-01-31T03:39:16.620Z,7.30
2023-01-31T03:44:45.178Z,5.30
2023-01-31T03:49:48.198Z,7.77
2023-01-31T03:54:55.432Z,4.90
2023-01-31T03:59:58.200Z,9.27
2023-01-31T04:05:09.498Z,5.10
2023-01-31T04:10:16.914Z,5.93
2023-01-31T04:15:19.085Z,3.93
2023-01-31T04:20:20.862Z,5.23
2023-01-31T04:25:23.134Z,5.27
2023-01-31T04:30:24.917Z,6.00
2023-01-31T04:35:26.597Z,6.63
2023-01-31T04:40:28.428Z,7.80
2023-01-31T04:45:30.888Z,8.10
2023-01-31T04:50:32.993Z,7.93
2023-01-31T04:55:35.525Z,7.10
2023-01-31T05:00:37.232Z,6.83
2023-01-31T05:05:39.961Z,8.60
2023-01-31T05:10:46.618Z,7.50
2023-01-31T05:15:49.556Z,8.97
2023-01-31T05:20:51.757Z,12.10
2023-01-31T05:25:53.443Z,7.77
2023-01-31T05:31:02.028Z,9.73
2023-01-31T05:36:04.213Z,9.23
2023-01-31T05:41:05.802Z,6.73
2023-01-31T05:46:07.505Z,9.13
2023-01-31T05:51:09.162Z,3.50
2023-01-31T05:56:10.773Z,9.17
2023-01-31T06:01:15.489Z,8.63
2023-01-31T06:06:17.808Z,8.30
2023-01-31T06:11:19.396Z,11.07
2023-01-31T06:16:21.892Z,8.00
2023-01-31T06:21:23.545Z,7.23
2023-01-31T06:26:25.197Z,6.90
2023-01-31T06:31:27.432Z,9.20
2023-01-31T06:36:31.733Z,9.57
2023-01-31T06:41:33.384Z,6.63
2023-01-31T06:46:35.497Z,7.50
2023-01-31T06:51:37.377Z,9.67
2023-01-31T06:56:38.968Z,7.43
2023-01-31T07:01:40.705Z,6.23
2023-01-31T07:06:42.373Z,3.87
2023-01-31T07:11:44.077Z,8.27
2023-01-31T07:16:45.975Z,5.90
2023-01-31T07:21:49.172Z,8.83
2023-01-31T07:26:53.061Z,5.93
2023-01-31T07:31:55.323Z,7.80
2023-01-31T07:36:57.090Z,11.50
2023-01-31T07:41:58.665Z,5.77
2023-01-31T07:47:00.533Z,6.47
2023-01-31T07:52:02.234Z,7.27
2023-01-31T07:57:03.909Z,6.80
2023-01-31T08:02:27.635Z,6.33
2023-01-31T08:07:30.767Z,6.23
2023-01-31T08:12:34.467Z,8.43
2023-01-31T08:17:36.820Z,9.97
2023-01-31T08:22:38.342Z,9.47
2023-01-31T08:27:39.919Z,8.60
2023-01-31T08:32:41.551Z,8.37
2023-01-31T08:37:43.096Z,10.13
2023-01-31T08:42:44.721Z,6.17
2023-01-31T08:47:46.693Z,6.70
2023-01-31T08:52:52.987Z,7.53
2023-01-31T08:57:59.704Z,4.63
2023-01-31T09:03:01.860Z,7.10
2023-01-31T09:08:03.484Z,6.03
2023-01-31T09:13:05.236Z,5.13
2023-01-31T09:18:06.927Z,3.17
2023-01-31T09:23:08.494Z,11.07
2023-01-31T09:28:10.185Z,9.70
2023-01-31T09:33:11.780Z,5.23
2023-01-31T09:38:13.751Z,7.87
2023-01-31T09:43:16.059Z,3.53
2023-01-31T09:48:21.300Z,5.23
2023-01-31T09:53:24.485Z,10.37
2023-01-31T09:58:40.839Z,5.63
2023-01-31T10:03:54.765Z,3.83
2023-01-31T10:09:12.682Z,8.63
2023-01-31T10:14:26.303Z,7.07
2023-01-31T10:19:33.110Z,7.33
2023-01-31T10:24:58.706Z,5.17
2023-01-31T10:30:00.785Z,5.20
2023-01-31T10:35:10.904Z,6.07
2023-01-31T10:40:46.028Z,7.77
2023-01-31T10:45:47.661Z,4.93
2023-01-31T10:51:03.111Z,4.13
2023-01-31T10:56:07.656Z,7.50
2023-01-31T11:01:15.244Z,7.27
2023-01-31T11:06:17.276Z,3.73
2023-01-31T11:11:21.337Z,4.87
2023-01-31T11:16:24.522Z,4.73
2023-01-31T11:21:29.204Z,5.83
2023-01-31T11:26:35.699Z,7.00
2023-01-31T11:31:40.962Z,4.53
2023-01-31T11:36:43.864Z,4.27
2023-01-31T11:41:48.394Z,6.67
2023-01-31T11:46:55.948Z,4.70
2023-01-31T11:52:00.540Z,5.60
2023-01-31T11:57:14.114Z,10.00
2023-01-31T12:02:24.703Z,5.93
2023-01-31T12:07:31.809Z,6.27
2023-01-31T12:12:36.470Z,4.40
2023-01-31T12:17:47.052Z,5.10
2023-01-31T12:23:02.542Z,6.10
2023-01-31T12:28:16.181Z,6.27
2023-01-31T12:33:32.795Z,5.10
2023-01-31T12:38:52.565Z,5.73
2023-01-31T12:44:16.327Z,4.80
2023-01-31T12:49:27.226Z,5.47
2023-01-31T12:54:43.240Z,6.03
2023-01-31T13:00:02.820Z,2.63
2023-01-31T13:05:42.051Z,3.13
2023-01-31T13:10:49.925Z,5.00
2023-01-31T13:16:06.078Z,3.97
2023-01-31T13:21:12.040Z,3.57
2023-01-31T13:26:26.866Z,2.63
2023-01-31T13:31:31.051Z,4.63
2023-01-31T13:36:37.045Z,3.37
2023-01-31T13:41:40.076Z,2.27
2023-01-31T13:46:57.296Z,2.43
2023-01-31T13:52:02.245Z,2.40
2023-01-31T13:57:04.231Z,1.87
2023-01-31T14:02:17.932Z,2.07
2023-01-31T14:07:21.705Z,1.43
2023-01-31T14:12:23.260Z,2.57
2023-01-31T14:17:27.783Z,3.37
2023-01-31T14:22:38.513Z,2.10
2023-01-31T14:27:48.247Z,2.07
2023-01-31T14:33:13.096Z,3.17
2023-01-31T14:38:14.925Z,2.20
2023-01-31T14:43:39.066Z,6.33
2023-01-31T14:48:57.686Z,5.43
2023-01-31T14:54:11.287Z,2.40
2023-01-31T14:59:29.482Z,3.57
2023-01-31T15:04:31.134Z,4.47
2023-01-31T15:09:38.567Z,2.50
2023-01-31T15:14:45.104Z,2.97
2023-01-31T15:19:52.625Z,3.27
2023-01-31T15:25:09.247Z,2.33
2023-01-31T15:30:17.709Z,2.30
2023-01-31T15:35:32.336Z,2.20
2023-01-31T15:40:34.007Z,2.27
2023-01-31T15:45:36.110Z,3.43
2023-01-31T15:50:37.654Z,1.87
2023-01-31T15:55:40.568Z,1.90
2023-01-31T16:00:44.225Z,1.50
2023-01-31T16:05:50.247Z,1.60
2023-01-31T16:10:51.879Z,1.80
2023-01-31T16:15:54.013Z,1.90
2023-01-31T16:20:56.099Z,1.80
2023-01-31T16:26:14.540Z,1.80
2023-01-31T16:31:21.535Z,2.07
2023-01-31T16:36:30.042Z,2.00
2023-01-31T16:41:58.049Z,2.37
2023-01-31T16:46:59.935Z,2.20
2023-01-31T16:52:24.861Z,2.20
2023-01-31T16:57:38.198Z,2.10
2023-01-31T17:02:41.207Z,3.37
2023-01-31T17:07:45.017Z,3.57
2023-01-31T17:12:46.691Z,2.50
2023-01-31T17:17:48.413Z,2.50
2023-01-31T17:22:57.143Z,4.20
2023-01-31T17:28:03.783Z,2.67
2023-01-31T17:33:05.860Z,2.90
2023-01-31T17:38:07.600Z,3.27
2023-01-31T17:43:19.214Z,3.40
2023-01-31T17:48:26.693Z,4.13
2023-01-31T17:53:32.079Z,3.50
2023-01-31T17:58:38.403Z,4.07
2023-01-31T18:03:40.175Z,5.67
2023-01-31T18:08:41.806Z,3.70
2023-01-31T18:13:44.059Z,3.90
2023-01-31T18:18:45.723Z,3.90
2023-01-31T18:23:52.032Z,5.17
2023-01-31T18:28:55.669Z,4.60
2023-01-31T18:33:58.181Z,4.70
2023-01-31T18:38:59.778Z,5.10
2023-01-31T18:44:01.303Z,6.60
2023-01-31T18:49:02.816Z,7.73
2023-01-31T18:54:04.857Z,5.37
2023-01-31T18:59:06.373Z,5.63
2023-01-31T19:04:07.924Z,6.17
2023-01-31T19:09:09.736Z,5.60
2023-01-31T19:14:14.794Z,5.47
2023-01-31T19:19:16.443Z,6.17
2023-01-31T19:24:18.038Z,5.17
2023-01-31T19:29:20.678Z,5.10
2023-01-31T19:34:22.245Z,6.37
2023-01-31T19:39:23.808Z,4.30
2023-01-31T19:44:25.654Z,6.83
2023-01-31T19:49:27.350Z,5.77
2023-01-31T19:54:29.002Z,7.67
2023-01-31T19:59:30.634Z,4.87
2023-01-31T20:04:32.692Z,3.37
2023-01-31T20:09:34.320Z,6.10
2023-01-31T20:14:35.873Z,7.03
2023-01-31T20:19:37.564Z,5.53
2023-01-31T20:24:39.144Z,4.33
2023-01-31T20:29:41.082Z,4.33
2023-01-31T20:34:42.714Z,4.73
2023-01-31T20:39:44.364Z,6.17
2023-01-31T20:44:46.867Z,7.00
2023-01-31T20:49:48.499Z,8.47
2023-01-31T20:54:50.515Z,4.80
2023-01-31T20:59:52.152Z,6.60
2023-01-31T21:04:53.819Z,8.43
2023-01-31T21:09:55.413Z,7.67
2023-01-31T21:14:56.952Z,8.10
2023-01-31T21:19:58.603Z,10.73
2023-01-31T21:25:00.274Z,8.50
2023-01-31T21:30:02.029Z,11.27
2023-01-31T21:35:03.758Z,7.97
2023-01-31T21:40:08.000Z,8.07
2023-01-31T21:45:10.457Z,12.40
2023-01-31T21:50:12.064Z,11.07
2023-01-31T21:55:13.775Z,14.63
2023-01-31T22:00:15.647Z,8.70
2023-01-31T22:05:17.267Z,10.20
2023-01-31T22:10:18.993Z,11.70
2023-01-31T22:15:22.023Z,8.53
2023-01-31T22:20:23.992Z,8.93
2023-01-31T22:25:25.778Z,10.57
2023-01-31T22:30:27.714Z,10.03
2023-01-31T22:35:29.390Z,10.83
2023-01-31T22:40:31.017Z,10.00
2023-01-31T22:45:32.533Z,8.07
2023-01-31T22:50:34.211Z,8.30
2023-01-31T22:55:42.277Z,14.77
2023-01-31T23:00:44.104Z,9.40
2023-01-31T23:05:45.728Z,9.70
2023-01-31T23:10:47.391Z,12.40
2023-01-31T23:15:49.809Z,9.00
2023-01-31T23:20:52.478Z,9.03
2023-01-31T23:25:54.087Z,11.13
2023-01-31T23:30:56.579Z,9.57
2023-01-31T23:35:58.190Z,14.43
2023-01-31T23:40:59.828Z,13.33
2023-01-31T23:46:01.430Z,10.53
2023-01-31T23:51:04.077Z,10.47
2023-01-31T23:56:06.126Z,8.47
